• Join FlightAware (Why Join?)
  • Login
  • US Flag 
Gobble Gobble! 
09:54AM EST


 

Airport Tracker/Info


-or-


 

Live Flight TrackerFlight Track Log ✈ N600TR ✈ 12-Aug-2013 ✈ KATL - KGSO

Flight Track Log - Related Links

Times and Time Zones

All times are in EDT time to prevent confusion due to time zone crossing. See the N600TR flight status page for this flight to view local times or setup timezone preferences in your user account.

Time Position Orientation Groundspeed Altitude Reporting Facility
EDT Latitude Longitude Course Direction KTS MPH feet Rate Location/Type
12:24PM 33.6500 -84.4833 54° Northeast 187 215 2,400  Level Atlanta TRACON
12:25PM 33.6833 -84.5500 301° West 266 306 4,300 2,280 Climbing Atlanta TRACON
12:26PM 33.7333 -84.6000 320° Northwest 277 319 7,000 2,340 Climbing Atlanta TRACON
12:27PM 33.8103 -83.9350 67° East  Level FlightAware Approximate
12:27PM 33.8000 -84.5667 23° Northeast 296 341 9,000  Level Atlanta TRACON
12:28PM 33.8621 -83.8091 59° Northeast  Level FlightAware Approximate
12:29PM 33.9274 -83.7005 54° Northeast  Level FlightAware Approximate
12:29PM 33.8314 -84.3414 80° East 317 365 12,100  Level Atlanta Center
12:30PM 33.8214 -84.2139 95° East 358 412 12,800 1,500 Climbing Atlanta Center
12:31PM 33.7922 -84.0814 105° East 395 455 15,100 1,860 Climbing Atlanta Center
12:33PM 33.8192 -83.8289 83° East 385 443 18,500 1,620 Climbing Atlanta Center
12:34PM 33.8878 -83.7108 55° Northeast 395 455 20,100 1,320 Climbing Atlanta Center
12:35PM 33.9522 -83.6106 52° Northeast 416 479 21,200 1,140 Climbing Atlanta Center
12:36PM 34.0267 -83.4925 53° Northeast 434 499 22,400 1,320 Climbing Atlanta Center
12:37PM 34.0992 -83.3789 52° Northeast 435 501 23,900 1,140 Climbing Atlanta Center
12:38PM 34.1822 -83.2653 49° Northeast 441 507 24,700 840 Climbing Atlanta Center
12:39PM 34.2647 -83.1514 49° Northeast 441 507 25,600 840 Climbing Atlanta Center
12:40PM 34.3494 -83.0375 48° Northeast 441 507 26,400 1,680 Climbing Atlanta Center
12:41PM 34.4467 -82.9153 46° Northeast 453 521 29,000 900 Climbing Atlanta Center
12:42PM 34.5206 -82.8008 52° Northeast 458 527 28,200 -120 Descending Atlanta Center
12:43PM 34.6108 -82.6658 51° Northeast 468 539 28,800 360 Climbing Atlanta Center
12:44PM 34.6783 -82.5283 59° Northeast 468 539 29,000 60 Climbing Atlanta Center
12:45PM 34.7494 -82.3881 58° Northeast 474 545 29,000  Level Atlanta Center
12:46PM 34.8183 -82.2500 59° Northeast 480 552 29,000  Level Atlanta Center
12:47PM 34.8958 -82.1192 54° Northeast 480 552 29,000  Level Atlanta Center
12:48PM 34.9797 -82.0133 46° Northeast 467 537 29,000 -540 Level Atlanta Center
12:49PM 35.0947 -81.9064 37° Northeast 467 537 28,000 -1,740 Descending Atlanta Center
12:50PM 35.2100 -81.8272 29° Northeast 467 537 25,600 -2,460 Descending Atlanta Center
12:51PM 35.3189 -81.7353 35° Northeast 472 543 23,100 -2,280 Descending Atlanta Center
12:52PM 35.4217 -81.6481 35° Northeast 467 537 21,100 -1,620 Descending Atlanta Center
12:53PM 35.5244 -81.5711 31° Northeast 441 507 19,900 -960 Descending Atlanta Center
12:54PM 35.6272 -81.5017 29° Northeast 425 489 19,200 -480 Descending Atlanta Center
12:55PM 35.7136 -81.4325 33° Northeast 415 478 19,000 -240 Descending Atlanta Center
12:56PM 35.8119 -81.3550 33° Northeast 415 478 18,800 -900 Descending Atlanta Center
12:57PM 35.9125 -81.2750 33° Northeast 426 490 17,300 -1,500 Descending Atlanta Center
12:58PM 36.0150 -81.1944 32° Northeast 431 496 15,800 -1,560 Descending Atlanta Center
12:59PM 36.1172 -81.1136 33° Northeast 411 473 14,200 -1,620 Descending Atlanta Center
01:01PM 36.1783 -80.8825 72° East 358 412 11,000 -1,080 Descending Atlanta Center
01:02PM 36.1603 -80.7519 100° East 371 427 11,000  Level Atlanta Center
01:03PM 36.1442 -80.6242 99° East 376 433 11,000  Level Atlanta Center
01:04PM 36.1261 -80.4964 100° East 376 433 11,000  Level Atlanta Center
01:05PM 36.1142 -80.3761 97° East 369 425 11,000 -60 Level Atlanta Center
01:06PM 36.1503 -80.2639 68° East 339 390 10,900 -660 Descending Atlanta Center
01:07PM 36.2083 -80.1839 48° Northeast 316 364 9,700 -1,500 Descending Atlanta Center
01:08PM 36.2497 -80.1072 56° Northeast 305 351 8,000 -1,740 Descending Atlanta Center
01:09PM 36.2528 -80.0042 88° East 282 325 6,300 -1,800 Descending Atlanta Center
01:10PM 36.2267 -79.9128 109° East 271 312 4,400 -1,800 Descending Atlanta Center
01:11PM 36.1725 -79.8564 140° Southeast 227 261 2,800 -1,620 Descending Atlanta Center